createdAt,value
2019-02-07T00:00:06.538Z,16.90
2019-02-07T00:01:06.526Z,17.00
2019-02-07T00:02:06.540Z,15.70
2019-02-07T00:03:06.505Z,19.20
2019-02-07T00:04:06.493Z,16.20
2019-02-07T00:05:06.484Z,17.00
2019-02-07T00:06:06.477Z,16.20
2019-02-07T00:07:06.486Z,15.40
2019-02-07T00:08:06.450Z,16.20
2019-02-07T00:09:06.439Z,16.40
2019-02-07T00:10:06.431Z,16.20
2019-02-07T00:11:06.419Z,14.10
2019-02-07T00:12:06.431Z,15.00
2019-02-07T00:13:06.395Z,15.80
2019-02-07T00:14:06.385Z,15.60
2019-02-07T00:15:06.373Z,17.10
2019-02-07T00:16:06.364Z,15.60
2019-02-07T00:17:06.374Z,15.60
2019-02-07T00:18:06.340Z,17.20
2019-02-07T00:19:06.329Z,15.10
2019-02-07T00:20:06.318Z,14.30
2019-02-07T00:21:06.307Z,15.20
2019-02-07T00:22:06.321Z,14.00
2019-02-07T00:23:06.285Z,15.30
2019-02-07T00:24:06.275Z,14.90
2019-02-07T00:25:06.264Z,13.90
2019-02-07T00:26:06.254Z,14.60
2019-02-07T00:27:06.265Z,16.80
2019-02-07T00:28:06.228Z,14.30
2019-02-07T00:29:06.218Z,13.90
2019-02-07T00:30:06.206Z,12.80
2019-02-07T00:31:06.195Z,15.50
2019-02-07T00:32:06.211Z,14.10
2019-02-07T00:33:06.174Z,14.70
2019-02-07T00:34:06.164Z,14.50
2019-02-07T00:35:06.150Z,15.40
2019-02-07T00:36:06.139Z,14.20
2019-02-07T00:37:06.131Z,13.60
2019-02-07T00:38:06.143Z,17.00
2019-02-07T00:39:06.105Z,13.80
2019-02-07T00:40:06.097Z,15.10
2019-02-07T00:41:06.082Z,15.20
2019-02-07T00:42:06.074Z,14.10
2019-02-07T00:43:06.085Z,14.00
2019-02-07T00:44:06.049Z,14.30
2019-02-07T00:45:06.038Z,16.60
2019-02-07T00:46:06.027Z,17.40
2019-02-07T00:47:06.017Z,14.80
2019-02-07T00:48:06.031Z,15.00
2019-02-07T00:49:05.993Z,14.00
2019-02-07T00:50:05.984Z,16.00
2019-02-07T00:51:05.974Z,14.00
2019-02-07T00:52:05.964Z,12.80
2019-02-07T00:53:05.973Z,14.60
2019-02-07T00:54:06.046Z,14.30
2019-02-07T00:55:05.929Z,14.70
2019-02-07T00:56:05.920Z,13.90
2019-02-07T00:57:05.940Z,14.30
2019-02-07T00:58:05.920Z,14.30
2019-02-07T00:59:05.885Z,14.30
2019-02-07T01:00:05.872Z,13.00
2019-02-07T01:01:05.860Z,14.50
2019-02-07T01:02:05.848Z,15.70
2019-02-07T01:03:05.861Z,14.80
2019-02-07T01:04:05.826Z,15.30
2019-02-07T01:05:05.816Z,13.50
2019-02-07T01:06:05.803Z,16.40
2019-02-07T01:07:05.791Z,14.60
2019-02-07T01:08:05.805Z,14.30
2019-02-07T01:09:05.774Z,15.00
2019-02-07T01:10:05.757Z,16.20
2019-02-07T01:11:05.747Z,15.80
2019-02-07T01:12:05.735Z,13.30
2019-02-07T01:13:05.747Z,14.50
2019-02-07T01:14:05.713Z,15.80
2019-02-07T01:15:05.701Z,14.70
2019-02-07T01:16:05.690Z,15.40
2019-02-07T01:17:05.680Z,14.50
2019-02-07T01:18:05.693Z,14.20
2019-02-07T01:19:05.656Z,18.70
2019-02-07T01:20:05.648Z,15.50
2019-02-07T01:21:05.633Z,15.00
2019-02-07T01:22:05.624Z,16.50
2019-02-07T01:23:05.632Z,14.90
2019-02-07T01:24:05.598Z,14.80
2019-02-07T01:25:05.586Z,15.50
2019-02-07T01:26:05.576Z,15.30
2019-02-07T01:27:05.564Z,15.70
2019-02-07T01:28:05.579Z,15.40
2019-02-07T01:29:05.543Z,14.30
2019-02-07T01:30:05.533Z,15.00
2019-02-07T01:31:05.518Z,14.90
2019-02-07T01:32:05.510Z,14.20
2019-02-07T01:33:05.641Z,15.50
2019-02-07T01:34:05.485Z,14.90
2019-02-07T01:35:05.473Z,14.80
2019-02-07T01:36:05.463Z,14.20
2019-02-07T01:37:05.453Z,15.10
2019-02-07T01:38:05.443Z,13.90
2019-02-07T01:39:05.452Z,14.20
2019-02-07T01:40:05.419Z,16.20
2019-02-07T01:41:05.407Z,15.80
2019-02-07T01:42:05.396Z,16.30
2019-02-07T01:43:05.386Z,16.40
2019-02-07T01:44:05.398Z,15.20
2019-02-07T01:45:12.781Z,14.80
2019-02-07T01:46:06.349Z,16.90
2019-02-07T01:47:05.338Z,16.70
2019-02-07T01:48:05.329Z,16.30
2019-02-07T01:49:05.340Z,15.20
2019-02-07T01:50:05.305Z,14.70
2019-02-07T01:51:05.296Z,15.30
2019-02-07T01:52:05.283Z,15.40
2019-02-07T01:53:05.271Z,14.80
2019-02-07T01:54:05.285Z,15.20
2019-02-07T01:55:05.248Z,16.10
2019-02-07T01:56:05.242Z,15.20
2019-02-07T01:57:05.228Z,14.70
2019-02-07T01:58:05.216Z,17.80
2019-02-07T01:59:05.227Z,16.30
2019-02-07T02:00:05.198Z,13.90
2019-02-07T02:01:05.184Z,14.30
2019-02-07T02:02:05.169Z,15.50
2019-02-07T02:03:05.156Z,16.50
2019-02-07T02:04:05.172Z,14.70
2019-02-07T02:05:05.134Z,15.70
2019-02-07T02:06:05.123Z,16.10
2019-02-07T02:07:05.112Z,13.20
2019-02-07T02:08:05.101Z,15.50
2019-02-07T02:09:05.113Z,14.10
2019-02-07T02:10:05.077Z,15.90
2019-02-07T02:11:05.066Z,16.00
2019-02-07T02:12:05.055Z,15.50
2019-02-07T02:13:05.044Z,15.40
2019-02-07T02:14:05.058Z,14.90
2019-02-07T02:15:05.021Z,14.60
2019-02-07T02:16:05.010Z,13.80
2019-02-07T02:17:04.999Z,13.70
2019-02-07T02:18:04.991Z,16.60
2019-02-07T02:19:04.999Z,16.50
2019-02-07T02:20:04.964Z,14.60
2019-02-07T02:21:04.954Z,13.90
2019-02-07T02:22:04.941Z,14.60
2019-02-07T02:23:04.932Z,14.40
2019-02-07T02:24:04.942Z,16.30
2019-02-07T02:25:04.906Z,15.90
2019-02-07T02:26:04.897Z,14.50
2019-02-07T02:27:04.885Z,14.10
2019-02-07T02:28:04.875Z,15.50
2019-02-07T02:29:04.887Z,13.90
2019-02-07T02:30:04.856Z,14.20
2019-02-07T02:31:04.842Z,14.50
2019-02-07T02:32:04.830Z,14.50
2019-02-07T02:33:04.816Z,13.20
2019-02-07T02:34:04.828Z,15.10
2019-02-07T02:35:04.793Z,15.20
2019-02-07T02:36:04.787Z,15.40
2019-02-07T02:37:04.772Z,14.40
2019-02-07T02:38:04.759Z,15.10
2019-02-07T02:39:04.845Z,14.50
2019-02-07T02:40:04.737Z,15.10
2019-02-07T02:41:04.728Z,13.90
2019-02-07T02:42:04.713Z,15.40
2019-02-07T02:43:04.726Z,15.50
2019-02-07T02:44:04.693Z,15.20
2019-02-07T02:45:04.704Z,15.20
2019-02-07T02:46:04.671Z,14.60
2019-02-07T02:47:04.657Z,14.70
2019-02-07T02:48:04.646Z,15.80
2019-02-07T02:49:04.635Z,13.80
2019-02-07T02:50:04.647Z,15.60
2019-02-07T02:51:04.613Z,14.50
2019-02-07T02:52:04.604Z,14.30
2019-02-07T02:53:04.589Z,14.30
2019-02-07T02:54:04.585Z,15.00
2019-02-07T02:55:04.590Z,17.60
2019-02-07T02:56:04.554Z,16.10
2019-02-07T02:57:04.543Z,15.10
2019-02-07T02:58:04.536Z,12.60
2019-02-07T02:59:04.520Z,15.10
2019-02-07T03:00:04.535Z,13.20
2019-02-07T03:01:04.500Z,13.70
2019-02-07T03:02:04.488Z,14.50
2019-02-07T03:03:04.478Z,13.80
2019-02-07T03:04:04.465Z,13.70
2019-02-07T03:05:04.478Z,13.70
2019-02-07T03:06:04.446Z,13.80
2019-02-07T03:07:04.430Z,13.00
2019-02-07T03:08:04.419Z,13.90
2019-02-07T03:09:04.409Z,15.90
2019-02-07T03:10:04.422Z,15.30
2019-02-07T03:11:04.385Z,13.30
2019-02-07T03:12:04.375Z,13.50
2019-02-07T03:13:04.362Z,14.00
2019-02-07T03:14:04.358Z,13.20
2019-02-07T03:15:04.365Z,13.50
2019-02-07T03:16:04.330Z,13.40
2019-02-07T03:17:04.319Z,14.10
2019-02-07T03:18:04.306Z,16.20
2019-02-07T03:19:04.294Z,13.30
2019-02-07T03:20:04.285Z,13.90
2019-02-07T03:21:04.298Z,14.00
2019-02-07T03:22:04.263Z,13.90
2019-02-07T03:23:04.250Z,13.60
2019-02-07T03:24:04.240Z,14.70
2019-02-07T03:25:04.229Z,14.20
2019-02-07T03:26:04.240Z,13.50
2019-02-07T03:27:04.206Z,13.60
2019-02-07T03:28:04.193Z,12.60
2019-02-07T03:29:04.185Z,13.50
2019-02-07T03:30:04.178Z,14.30
2019-02-07T03:31:04.184Z,12.70
2019-02-07T03:32:04.165Z,15.30
2019-02-07T03:33:04.147Z,14.60
2019-02-07T03:34:04.126Z,13.70
2019-02-07T03:35:04.114Z,13.50
2019-02-07T03:36:04.127Z,14.30
2019-02-07T03:37:04.094Z,13.50
2019-02-07T03:38:04.080Z,13.30
2019-02-07T03:39:04.071Z,13.30
2019-02-07T03:40:04.059Z,13.80
2019-02-07T03:41:04.069Z,12.80
2019-02-07T03:42:04.035Z,15.30
2019-02-07T03:43:04.024Z,14.40
2019-02-07T03:44:04.013Z,14.10
2019-02-07T03:45:04.001Z,14.10
2019-02-07T03:46:04.013Z,14.20
2019-02-07T03:47:03.980Z,13.50
2019-02-07T03:48:03.968Z,14.00
2019-02-07T03:49:03.956Z,13.90
2019-02-07T03:50:03.945Z,13.50
2019-02-07T03:51:03.959Z,13.30
2019-02-07T03:52:03.921Z,14.70
2019-02-07T03:53:03.915Z,14.30
2019-02-07T03:54:03.898Z,13.90
2019-02-07T03:55:03.889Z,16.20
2019-02-07T03:56:03.899Z,14.30
2019-02-07T03:57:03.866Z,15.10
2019-02-07T03:58:03.854Z,13.60
2019-02-07T03:59:03.842Z,14.40
2019-02-07T04:00:03.833Z,12.40
2019-02-07T04:01:03.822Z,14.50
2019-02-07T04:02:03.831Z,14.10
2019-02-07T04:03:03.797Z,14.70
2019-02-07T04:04:03.790Z,14.80
2019-02-07T04:05:03.781Z,15.20
2019-02-07T04:06:03.765Z,15.40
2019-02-07T04:07:03.774Z,15.20
2019-02-07T04:08:03.741Z,16.10
2019-02-07T04:09:03.734Z,13.60
2019-02-07T04:10:03.716Z,13.40
2019-02-07T04:11:03.706Z,13.10
2019-02-07T04:12:03.718Z,13.00
2019-02-07T04:13:03.684Z,12.10
2019-02-07T04:14:03.674Z,12.30
2019-02-07T04:15:03.662Z,14.70
2019-02-07T04:16:14.857Z,13.80
2019-02-07T04:17:04.661Z,12.60
2019-02-07T04:18:03.630Z,13.00
2019-02-07T04:19:03.615Z,13.60
2019-02-07T04:20:03.604Z,14.00
2019-02-07T04:21:03.596Z,13.50
2019-02-07T04:22:03.605Z,13.30
2019-02-07T04:23:03.570Z,14.80
2019-02-07T04:24:03.560Z,14.10
2019-02-07T04:25:03.547Z,13.30
2019-02-07T04:26:03.535Z,12.90
2019-02-07T04:27:03.548Z,13.30
2019-02-07T04:28:03.512Z,14.40
2019-02-07T04:29:03.502Z,15.50
2019-02-07T04:30:03.490Z,12.40
2019-02-07T04:31:03.481Z,13.60
2019-02-07T04:32:03.493Z,14.80
2019-02-07T04:33:03.456Z,12.30
2019-02-07T04:34:03.446Z,13.80
2019-02-07T04:35:03.443Z,14.40
2019-02-07T04:36:03.421Z,14.10
2019-02-07T04:37:03.435Z,13.40
2019-02-07T04:38:03.400Z,12.50
2019-02-07T04:39:03.388Z,14.00
2019-02-07T04:40:03.380Z,14.00
2019-02-07T04:41:03.367Z,17.20
2019-02-07T04:42:03.363Z,12.30
2019-02-07T04:43:03.377Z,15.50
2019-02-07T04:44:03.332Z,12.60
2019-02-07T04:45:03.320Z,14.10
2019-02-07T04:46:03.308Z,12.90
2019-02-07T04:47:03.298Z,14.60
2019-02-07T04:48:03.313Z,13.30
2019-02-07T04:49:03.281Z,13.20
2019-02-07T04:50:03.267Z,12.90
2019-02-07T04:51:03.254Z,12.00
2019-02-07T04:52:03.241Z,13.50
2019-02-07T04:53:03.253Z,14.50
2019-02-07T04:54:03.219Z,14.10
2019-02-07T04:55:03.207Z,13.70
2019-02-07T04:56:03.196Z,13.30
2019-02-07T04:57:03.184Z,14.20
2019-02-07T04:58:03.195Z,13.80
2019-02-07T04:59:03.164Z,12.20
2019-02-07T05:00:03.151Z,12.40
2019-02-07T05:01:03.139Z,13.40
2019-02-07T05:02:03.128Z,13.00
2019-02-07T05:03:03.142Z,14.00
2019-02-07T05:04:03.105Z,13.00
2019-02-07T05:05:03.096Z,13.30
2019-02-07T05:06:03.083Z,12.80
2019-02-07T05:07:03.070Z,13.50
2019-02-07T05:08:03.084Z,13.80
2019-02-07T05:09:03.050Z,13.30
2019-02-07T05:10:03.037Z,12.60
2019-02-07T05:11:03.029Z,12.90
2019-02-07T05:12:03.015Z,14.80
2019-02-07T05:13:03.028Z,13.40
2019-02-07T05:14:02.992Z,13.40
2019-02-07T05:15:02.987Z,12.10
2019-02-07T05:16:02.969Z,13.00
2019-02-07T05:17:02.963Z,14.00
2019-02-07T05:18:02.972Z,13.20
2019-02-07T05:19:02.976Z,17.20
2019-02-07T05:20:02.929Z,13.90
2019-02-07T05:21:02.913Z,13.40
2019-02-07T05:22:02.901Z,13.20
2019-02-07T05:23:02.919Z,11.90
2019-02-07T05:24:02.880Z,14.00
2019-02-07T05:25:02.867Z,12.80
2019-02-07T05:26:02.856Z,12.70
2019-02-07T05:27:02.844Z,13.00
2019-02-07T05:28:02.866Z,13.10
2019-02-07T05:29:02.824Z,13.40
2019-02-07T05:30:02.811Z,12.40
2019-02-07T05:31:02.802Z,14.20
2019-02-07T05:32:02.790Z,13.20
2019-02-07T05:33:02.800Z,13.40
2019-02-07T05:34:02.770Z,14.30
2019-02-07T05:35:02.757Z,12.30
2019-02-07T05:36:02.743Z,13.40
2019-02-07T05:37:02.734Z,13.90
2019-02-07T05:38:02.724Z,13.20
2019-02-07T05:39:02.735Z,13.60
2019-02-07T05:40:02.706Z,12.70
2019-02-07T05:41:02.687Z,12.80
2019-02-07T05:42:02.674Z,14.10
2019-02-07T05:43:02.668Z,12.30
2019-02-07T05:44:02.675Z,15.50
2019-02-07T05:45:02.641Z,11.60
2019-02-07T05:46:02.629Z,11.70
2019-02-07T05:47:02.620Z,12.50
2019-02-07T05:48:02.607Z,13.10
2019-02-07T05:49:02.619Z,13.10
2019-02-07T05:50:02.584Z,13.40
2019-02-07T05:51:02.573Z,12.40
2019-02-07T05:52:02.563Z,13.60
2019-02-07T05:53:02.552Z,14.50
2019-02-07T05:54:02.561Z,13.80
2019-02-07T05:55:02.527Z,12.70
2019-02-07T05:56:02.520Z,12.50
2019-02-07T05:57:02.503Z,12.60
2019-02-07T05:58:02.492Z,11.70
2019-02-07T05:59:02.508Z,12.60
2019-02-07T06:00:02.493Z,14.80
2019-02-07T06:01:02.460Z,13.30
2019-02-07T06:02:02.446Z,13.80
2019-02-07T06:03:02.437Z,11.40
2019-02-07T06:04:02.448Z,12.10
2019-02-07T06:05:02.414Z,13.10
2019-02-07T06:06:02.401Z,12.60
2019-02-07T06:07:02.392Z,12.80
2019-02-07T06:08:02.387Z,12.50
2019-02-07T06:09:02.392Z,12.10
2019-02-07T06:10:02.357Z,13.60
2019-02-07T06:11:02.344Z,13.00
2019-02-07T06:12:02.333Z,11.70
2019-02-07T06:13:02.323Z,13.30
2019-02-07T06:14:02.334Z,14.70
2019-02-07T06:15:02.302Z,15.00
2019-02-07T06:16:02.289Z,13.10
2019-02-07T06:17:03.095Z,12.70
2019-02-07T06:18:02.267Z,14.60
2019-02-07T06:19:02.280Z,12.60
2019-02-07T06:20:02.244Z,13.50
2019-02-07T06:21:02.232Z,14.40
2019-02-07T06:22:02.219Z,13.70
2019-02-07T06:23:02.217Z,14.20
2019-02-07T06:24:02.221Z,15.20
2019-02-07T06:25:02.185Z,14.30
2019-02-07T06:26:02.175Z,12.70
2019-02-07T06:27:02.162Z,15.10
2019-02-07T06:28:02.167Z,14.20
2019-02-07T06:29:02.163Z,13.70
2019-02-07T06:30:02.155Z,14.50
2019-02-07T06:31:02.119Z,13.50
2019-02-07T06:32:02.169Z,14.30
2019-02-07T06:33:02.097Z,13.80
2019-02-07T06:34:02.112Z,15.40
2019-02-07T06:35:02.073Z,13.80
2019-02-07T06:36:02.064Z,13.80
2019-02-07T06:37:02.053Z,13.50
2019-02-07T06:38:02.055Z,16.10
2019-02-07T06:39:02.033Z,17.40
2019-02-07T06:40:02.065Z,13.90
2019-02-07T06:41:02.009Z,14.40
2019-02-07T06:42:02.006Z,13.70
2019-02-07T06:43:01.987Z,14.70
2019-02-07T06:44:01.974Z,15.50
2019-02-07T06:45:01.987Z,13.70
2019-02-07T06:46:01.950Z,16.80
2019-02-07T06:47:01.940Z,15.80
2019-02-07T06:48:01.927Z,16.50
2019-02-07T06:49:01.919Z,16.20
2019-02-07T06:50:01.927Z,15.90
2019-02-07T06:51:01.893Z,17.20
2019-02-07T06:52:01.990Z,14.40
2019-02-07T06:53:01.872Z,13.70
2019-02-07T06:54:01.860Z,15.80
2019-02-07T06:55:01.873Z,16.90
2019-02-07T06:56:01.839Z,19.00
2019-02-07T06:57:01.825Z,14.40
2019-02-07T06:58:01.815Z,14.90
2019-02-07T06:59:01.802Z,15.00
2019-02-07T07:00:01.817Z,16.10
2019-02-07T07:01:01.780Z,14.30
2019-02-07T07:02:01.770Z,16.50
2019-02-07T07:03:01.760Z,14.30
2019-02-07T07:04:01.748Z,15.70
2019-02-07T07:05:01.758Z,16.90
2019-02-07T07:06:01.724Z,16.50
2019-02-07T07:07:01.714Z,17.80
2019-02-07T07:08:01.704Z,15.80
2019-02-07T07:09:01.693Z,16.20
2019-02-07T07:10:01.707Z,15.40
2019-02-07T07:11:01.669Z,14.60
2019-02-07T07:12:01.662Z,15.60
2019-02-07T07:13:01.647Z,15.60
2019-02-07T07:14:01.635Z,15.80
2019-02-07T07:15:01.648Z,16.50
2019-02-07T07:16:01.612Z,16.50
2019-02-07T07:17:02.032Z,16.50
2019-02-07T07:18:02.318Z,16.60
2019-02-07T07:19:01.674Z,16.30
2019-02-07T07:20:02.450Z,16.90
2019-02-07T07:21:01.785Z,18.10
2019-02-07T07:22:01.547Z,18.90
2019-02-07T07:23:01.535Z,19.50
2019-02-07T07:24:01.524Z,18.10
2019-02-07T07:25:01.518Z,17.20
2019-02-07T07:26:01.525Z,18.00
2019-02-07T07:27:01.491Z,17.40
2019-02-07T07:28:01.480Z,18.00
2019-02-07T07:29:01.468Z,17.00
2019-02-07T07:30:01.459Z,19.10
2019-02-07T07:31:01.478Z,18.90
2019-02-07T07:32:01.436Z,17.30
2019-02-07T07:33:01.425Z,20.30
2019-02-07T07:34:01.414Z,21.30
2019-02-07T07:35:01.405Z,19.70
2019-02-07T07:36:01.466Z,18.50
2019-02-07T07:37:01.381Z,17.30
2019-02-07T07:38:01.370Z,17.90
2019-02-07T07:39:01.358Z,17.10
2019-02-07T07:40:01.350Z,20.10
2019-02-07T07:41:01.377Z,16.40
2019-02-07T07:42:01.326Z,16.00
2019-02-07T07:43:01.315Z,18.80
2019-02-07T07:44:01.303Z,18.20
2019-02-07T07:45:01.297Z,17.80
2019-02-07T07:46:01.307Z,18.70
2019-02-07T07:47:01.274Z,18.00
2019-02-07T07:48:01.259Z,18.10
2019-02-07T07:49:01.249Z,17.00
2019-02-07T07:50:01.239Z,16.10
2019-02-07T07:51:01.249Z,20.10
2019-02-07T07:52:01.218Z,14.90
2019-02-07T07:53:01.205Z,16.10
2019-02-07T07:54:01.193Z,17.00
2019-02-07T07:55:01.181Z,21.40
2019-02-07T07:56:01.193Z,19.40
2019-02-07T07:57:01.159Z,18.30
2019-02-07T07:58:01.148Z,18.10
2019-02-07T07:59:01.140Z,15.80
2019-02-07T08:00:01.126Z,14.80
2019-02-07T08:01:01.139Z,14.40
2019-02-07T08:02:01.106Z,14.50
2019-02-07T08:03:01.098Z,13.60
2019-02-07T08:04:01.083Z,13.10
2019-02-07T08:05:01.087Z,11.70
2019-02-07T08:06:01.101Z,12.40
2019-02-07T08:07:01.049Z,10.80
2019-02-07T08:08:01.038Z,12.10
2019-02-07T08:09:01.027Z,10.70
2019-02-07T08:10:01.016Z,11.30
2019-02-07T08:11:01.029Z,10.30
2019-02-07T08:12:00.993Z,9.90
2019-02-07T08:13:00.994Z,9.80
2019-02-07T08:14:00.973Z,9.40
2019-02-07T08:15:00.965Z,10.20
2019-02-07T08:16:00.952Z,9.40
2019-02-07T08:17:01.000Z,10.10
2019-02-07T08:18:00.930Z,9.10
2019-02-07T08:19:00.916Z,8.50
2019-02-07T08:20:00.908Z,9.30
2019-02-07T08:21:00.898Z,9.70
2019-02-07T08:22:00.918Z,9.80
2019-02-07T08:23:00.874Z,10.40
2019-02-07T08:24:00.867Z,10.20
2019-02-07T08:25:00.853Z,9.10
2019-02-07T08:26:00.842Z,9.90
2019-02-07T08:27:00.851Z,8.50
2019-02-07T08:28:00.818Z,9.90
2019-02-07T08:29:00.806Z,9.40
2019-02-07T08:30:00.795Z,8.70
2019-02-07T08:31:00.790Z,8.90
2019-02-07T08:32:00.805Z,8.50
2019-02-07T08:33:00.762Z,7.80
2019-02-07T08:34:00.749Z,7.20
2019-02-07T08:35:00.746Z,7.50
2019-02-07T08:36:00.726Z,7.00
2019-02-07T08:37:00.739Z,8.30
2019-02-07T08:38:00.704Z,7.10
2019-02-07T08:39:00.707Z,7.90
2019-02-07T08:40:00.682Z,6.90
2019-02-07T08:41:00.671Z,7.60
2019-02-07T08:42:00.685Z,6.90
2019-02-07T08:43:00.651Z,6.50
2019-02-07T08:44:00.639Z,6.40
2019-02-07T08:45:00.677Z,6.80
2019-02-07T08:46:00.663Z,7.30
2019-02-07T08:47:00.628Z,7.20
2019-02-07T08:48:00.592Z,6.90
2019-02-07T08:49:01.138Z,6.40
2019-02-07T08:50:00.570Z,7.40
2019-02-07T08:51:00.561Z,6.50
2019-02-07T08:52:00.577Z,6.40
2019-02-07T08:53:00.539Z,6.70
2019-02-07T08:54:00.528Z,6.10
2019-02-07T08:55:00.517Z,7.10
2019-02-07T08:56:00.505Z,7.00
2019-02-07T08:57:00.522Z,7.80
2019-02-07T08:58:00.483Z,7.00
2019-02-07T08:59:00.471Z,6.00
2019-02-07T09:00:00.462Z,6.40
2019-02-07T09:01:00.453Z,5.90
2019-02-07T09:02:00.461Z,6.10
2019-02-07T09:03:00.426Z,6.20
2019-02-07T09:04:00.417Z,6.40
2019-02-07T09:05:00.408Z,6.10
2019-02-07T09:06:00.393Z,5.60
2019-02-07T09:07:00.413Z,6.70
2019-02-07T09:08:00.371Z,6.00
2019-02-07T09:09:00.399Z,6.40
2019-02-07T09:10:00.359Z,6.50
2019-02-07T09:11:00.338Z,6.10
2019-02-07T09:12:00.329Z,6.10
2019-02-07T09:13:00.418Z,7.80
2019-02-07T09:14:00.308Z,6.60
2019-02-07T09:15:00.343Z,7.50
2019-02-07T09:16:00.282Z,6.40
2019-02-07T09:17:00.275Z,6.00
2019-02-07T09:18:09.865Z,6.20
2019-02-07T09:19:01.248Z,6.20
2019-02-07T09:20:00.326Z,6.20
2019-02-07T09:21:00.227Z,6.00
2019-02-07T09:22:00.216Z,6.00
2019-02-07T09:23:00.228Z,6.20
2019-02-07T09:24:00.193Z,6.20
2019-02-07T09:25:00.316Z,6.10
2019-02-07T09:26:00.169Z,6.20
2019-02-07T09:27:00.162Z,6.10
2019-02-07T09:28:00.171Z,6.20
2019-02-07T09:29:00.138Z,6.40
2019-02-07T09:30:00.308Z,6.30
2019-02-07T09:31:00.862Z,6.00
2019-02-07T09:32:00.105Z,6.90
2019-02-07T09:33:00.116Z,6.30
2019-02-07T09:34:00.082Z,6.40
2019-02-07T09:35:00.093Z,6.30
2019-02-07T09:36:05.365Z,6.80
2019-02-07T09:37:01.047Z,7.20
2019-02-07T09:38:00.061Z,6.30
2019-02-07T09:39:00.027Z,5.90
2019-02-07T09:40:00.014Z,6.40
2019-02-07T09:41:00.003Z,6.50
2019-02-07T09:41:59.995Z,6.60
2019-02-07T09:43:00.004Z,7.10
2019-02-07T09:43:59.970Z,6.90
2019-02-07T09:44:59.961Z,6.80
2019-02-07T09:45:59.950Z,6.60
2019-02-07T09:46:59.936Z,7.30
2019-02-07T09:47:59.948Z,6.90
2019-02-07T09:48:59.915Z,7.30
2019-02-07T09:49:59.903Z,6.40
2019-02-07T09:50:59.892Z,6.80
2019-02-07T09:51:59.882Z,6.10
2019-02-07T09:52:59.895Z,6.70
2019-02-07T09:53:59.859Z,7.30
2019-02-07T09:54:59.848Z,7.50
2019-02-07T09:55:59.845Z,7.30
2019-02-07T09:56:59.827Z,6.90
2019-02-07T09:57:59.836Z,6.00
2019-02-07T09:58:59.822Z,7.00
2019-02-07T09:59:59.791Z,6.60
2019-02-07T10:00:59.782Z,6.30
2019-02-07T10:01:59.769Z,8.00
2019-02-07T10:02:59.782Z,7.90
2019-02-07T10:03:59.747Z,6.60
2019-02-07T10:04:59.738Z,5.90
2019-02-07T10:05:59.725Z,6.90
2019-02-07T10:06:59.713Z,5.70
2019-02-07T10:07:59.705Z,5.90
2019-02-07T10:08:59.716Z,8.40
2019-02-07T10:09:59.681Z,6.70
2019-02-07T10:10:59.673Z,6.20
2019-02-07T10:11:59.658Z,6.40
2019-02-07T10:12:59.649Z,5.70
2019-02-07T10:13:59.662Z,6.20
2019-02-07T10:14:59.625Z,6.00
2019-02-07T10:15:59.614Z,6.30
2019-02-07T10:16:59.602Z,6.20
2019-02-07T10:17:59.593Z,6.40
2019-02-07T10:18:59.603Z,5.90
2019-02-07T10:19:59.569Z,5.70
2019-02-07T10:20:59.559Z,5.50
2019-02-07T10:21:59.546Z,5.90
2019-02-07T10:22:59.536Z,5.60
2019-02-07T10:23:59.551Z,5.80
2019-02-07T10:24:59.513Z,5.80
2019-02-07T10:25:59.503Z,5.60
2019-02-07T10:26:59.494Z,6.60
2019-02-07T10:27:59.479Z,5.20
2019-02-07T10:28:59.492Z,5.60
2019-02-07T10:29:59.457Z,6.20
2019-02-07T10:30:59.446Z,6.60
2019-02-07T10:31:59.435Z,7.50
2019-02-07T10:32:59.423Z,7.10
2019-02-07T10:33:59.436Z,6.70
2019-02-07T10:34:59.402Z,6.70
2019-02-07T10:35:59.390Z,7.70
2019-02-07T10:36:59.381Z,4.80
2019-02-07T10:37:59.368Z,9.30
2019-02-07T10:38:59.385Z,5.70
2019-02-07T10:39:59.347Z,5.70
2019-02-07T10:40:59.334Z,6.30
2019-02-07T10:41:59.323Z,6.50
2019-02-07T10:42:59.312Z,4.90
2019-02-07T10:43:59.325Z,4.30
2019-02-07T10:44:59.290Z,4.80
2019-02-07T10:45:59.283Z,5.80
2019-02-07T10:46:59.269Z,5.00
2019-02-07T10:47:59.258Z,5.00
2019-02-07T10:48:59.268Z,4.60
2019-02-07T10:49:59.682Z,4.90
2019-02-07T10:50:59.224Z,6.10
2019-02-07T10:51:59.212Z,6.60
2019-02-07T10:52:59.200Z,6.80
2019-02-07T10:53:59.213Z,5.30
2019-02-07T10:54:59.180Z,5.60
2019-02-07T10:55:59.167Z,7.50
2019-02-07T10:56:59.157Z,6.00
2019-02-07T10:57:59.146Z,5.40
2019-02-07T10:58:59.160Z,6.00
2019-02-07T10:59:59.122Z,6.30
2019-02-07T11:00:59.111Z,6.30
2019-02-07T11:01:59.101Z,4.90
2019-02-07T11:02:59.090Z,5.80
2019-02-07T11:03:59.079Z,4.70
2019-02-07T11:04:59.092Z,5.60
2019-02-07T11:05:59.057Z,5.10
2019-02-07T11:06:59.048Z,6.30
2019-02-07T11:07:59.034Z,4.70
2019-02-07T11:08:59.023Z,6.00
2019-02-07T11:09:59.037Z,5.60
2019-02-07T11:10:59.028Z,6.20
2019-02-07T11:11:58.990Z,5.80
2019-02-07T11:12:58.978Z,7.30
2019-02-07T11:13:58.968Z,5.70
2019-02-07T11:14:58.983Z,4.80
2019-02-07T11:15:58.945Z,6.20
2019-02-07T11:16:58.933Z,8.00
2019-02-07T11:17:58.922Z,6.40
2019-02-07T11:18:58.911Z,4.40
2019-02-07T11:19:58.923Z,4.90
2019-02-07T11:20:58.890Z,7.80
2019-02-07T11:21:58.881Z,5.50
2019-02-07T11:22:58.866Z,7.80
2019-02-07T11:23:58.855Z,6.40
2019-02-07T11:24:58.868Z,7.50
2019-02-07T11:25:58.833Z,6.30
2019-02-07T11:26:58.821Z,8.00
2019-02-07T11:28:09.839Z,8.10
2019-02-07T11:28:59.798Z,5.60
2019-02-07T11:29:58.810Z,7.70
2019-02-07T11:30:58.777Z,6.90
2019-02-07T11:31:58.766Z,6.40
2019-02-07T11:32:58.754Z,6.20
2019-02-07T11:33:58.743Z,9.70
2019-02-07T11:34:58.755Z,7.10
2019-02-07T11:35:58.733Z,8.60
2019-02-07T11:36:58.712Z,10.50
2019-02-07T11:37:58.699Z,9.10
2019-02-07T11:38:58.687Z,9.60
2019-02-07T11:39:58.700Z,8.00
2019-02-07T11:40:58.694Z,9.40
2019-02-07T11:41:58.654Z,11.50
2019-02-07T11:42:58.642Z,10.60
2019-02-07T11:43:58.631Z,8.90
2019-02-07T11:44:58.643Z,11.90
2019-02-07T11:45:58.609Z,10.20
2019-02-07T11:47:05.188Z,8.30
2019-02-07T11:47:59.588Z,13.90
2019-02-07T11:49:06.587Z,10.30
2019-02-07T11:49:59.586Z,10.20
2019-02-07T11:50:58.554Z,11.30
2019-02-07T11:51:58.545Z,10.20
2019-02-07T11:52:58.531Z,12.70
2019-02-07T11:53:58.520Z,8.20
2019-02-07T11:54:58.511Z,11.50
2019-02-07T11:55:58.521Z,10.60
2019-02-07T11:56:58.487Z,9.70
2019-02-07T11:57:58.476Z,11.40
2019-02-07T11:58:58.506Z,17.10
2019-02-07T11:59:58.459Z,11.70
2019-02-07T12:00:58.465Z,11.20
2019-02-07T12:02:08.543Z,11.00
2019-02-07T12:02:59.426Z,13.20
2019-02-07T12:03:58.408Z,11.40
2019-02-07T12:04:58.400Z,11.70
2019-02-07T12:05:58.412Z,17.40
2019-02-07T12:06:58.376Z,12.40
2019-02-07T12:07:58.364Z,11.70
2019-02-07T12:08:58.355Z,9.60
2019-02-07T12:09:58.343Z,11.10
2019-02-07T12:10:58.357Z,11.50
2019-02-07T12:11:58.320Z,12.10
2019-02-07T12:12:58.311Z,13.00
2019-02-07T12:13:58.297Z,12.30
2019-02-07T12:14:58.287Z,7.80
2019-02-07T12:15:58.297Z,13.30
2019-02-07T12:16:58.263Z,12.60
2019-02-07T12:17:58.253Z,11.90
2019-02-07T12:18:58.240Z,12.30
2019-02-07T12:19:58.230Z,9.90
2019-02-07T12:20:58.242Z,12.70
2019-02-07T12:21:58.207Z,14.90
2019-02-07T12:22:58.266Z,12.40
2019-02-07T12:23:58.233Z,13.60
2019-02-07T12:24:58.174Z,10.10
2019-02-07T12:25:58.187Z,11.70
2019-02-07T12:26:58.158Z,10.50
2019-02-07T12:27:58.141Z,11.50
2019-02-07T12:28:58.133Z,10.50
2019-02-07T12:29:58.194Z,13.50
2019-02-07T12:30:58.131Z,12.30
2019-02-07T12:31:58.096Z,11.40
2019-02-07T12:32:58.086Z,10.60
2019-02-07T12:33:58.082Z,11.70
2019-02-07T12:34:58.066Z,10.70
2019-02-07T12:35:58.075Z,10.30
2019-02-07T12:36:58.040Z,12.50
2019-02-07T12:37:58.028Z,10.80
2019-02-07T12:38:58.018Z,11.20
2019-02-07T12:39:58.007Z,11.70
2019-02-07T12:40:57.998Z,11.80
2019-02-07T12:41:58.010Z,8.40
2019-02-07T12:42:57.974Z,8.90
2019-02-07T12:43:58.013Z,9.20
2019-02-07T12:44:57.951Z,10.80
2019-02-07T12:45:57.943Z,11.10
2019-02-07T12:46:57.952Z,10.00
2019-02-07T12:47:57.918Z,8.50
2019-02-07T12:48:57.906Z,11.90
2019-02-07T12:49:57.895Z,10.20
2019-02-07T12:50:57.886Z,10.50
2019-02-07T12:51:57.898Z,9.60
2019-02-07T12:52:57.861Z,10.20
2019-02-07T12:53:57.854Z,15.30
2019-02-07T12:54:57.839Z,8.20
2019-02-07T12:55:57.831Z,9.20
2019-02-07T12:56:57.839Z,11.10
2019-02-07T12:57:57.807Z,12.00
2019-02-07T12:58:57.794Z,14.20